Terminal Aerodrome Forecast
Issued by NWS

Home | Current Version | Previous Version | Text Only | Print | Product List | Glossary On
Versions: 1 2 3 4 5 6 7 8 9 10 11 12
000
FTUS46 KPDT 020500
TAFPSC
TAF
KPSC 020527Z 0206/0306 VRB05KT P6SM BKN150
     FM022200 31006KT P6SM BKN150 PROB30 0222/0304 -TSRA BKN070CB=

USA.gov is the U.S. government's official web portal to all federal, state and local government web resources and services.